Time;durP1;ratioP1;P1;durP2;ratioP2;P2;SDS_P1;SDS_P2;PMS_P1;PMS_P2;Temp;Humidity;BMP_temperature;BMP_pressure;BME280_temperature;BME280_humidity;BME280_pressure;Samples;Min_cycle;Max_cycle;Signal;HPM_P1;HPM_P2
2023/03/01 00:00:46;;;;;;;12.10;10.18;;;4.70;99.90;;;;;;5033880;28;20042;-56
2023/03/01 00:03:13;;;;;;;13.80;10.40;;;4.60;99.90;;;;;;5033961;28;20049;-57
2023/03/01 00:05:40;;;;;;;12.98;10.00;;;4.60;99.90;;;;;;5033009;28;20136;-53
2023/03/01 00:08:06;;;;;;;10.77;9.40;;;4.60;99.90;;;;;;5034217;28;20049;-57
2023/03/01 00:10:33;;;;;;;13.73;10.07;;;4.60;99.90;;;;;;5034019;28;20107;-57
2023/03/01 00:13:00;;;;;;;11.35;10.13;;;4.60;99.90;;;;;;5032298;28;20480;-59
2023/03/01 00:15:27;;;;;;;12.77;9.68;;;4.50;99.90;;;;;;5034322;28;20110;-59
2023/03/01 00:17:53;;;;;;;11.75;10.52;;;4.50;99.90;;;;;;5034118;28;20100;-56
2023/03/01 00:20:20;;;;;;;16.02;11.27;;;4.50;99.90;;;;;;5034071;28;20555;-54
2023/03/01 00:22:47;;;;;;;13.40;10.65;;;4.50;99.90;;;;;;5033890;28;20076;-58
2023/03/01 00:25:14;;;;;;;14.60;10.30;;;4.40;99.90;;;;;;5034135;28;20072;-53
2023/03/01 00:27:40;;;;;;;15.65;10.75;;;4.40;99.90;;;;;;5033703;28;20052;-58
2023/03/01 00:30:07;;;;;;;14.52;11.23;;;4.40;99.90;;;;;;5032536;28;20056;-56
2023/03/01 00:32:34;;;;;;;14.50;11.45;;;4.40;99.90;;;;;;5033822;28;20041;-57
2023/03/01 00:35:01;;;;;;;15.75;11.23;;;4.40;99.90;;;;;;5033632;28;20045;-55
2023/03/01 00:37:27;;;;;;;13.05;11.10;;;4.40;99.90;;;;;;5032582;28;20045;-58
2023/03/01 00:39:54;;;;;;;16.50;11.73;;;4.40;99.90;;;;;;5032111;28;20041;-58
2023/03/01 00:42:21;;;;;;;12.63;10.52;;;4.30;99.90;;;;;;5031831;28;20057;-57
2023/03/01 00:44:48;;;;;;;15.32;11.98;;;4.30;99.90;;;;;;5033948;28;20049;-58
2023/03/01 00:47:15;;;;;;;13.00;11.57;;;4.30;99.90;;;;;;5033563;28;20052;-56
2023/03/01 00:49:42;;;;;;;15.50;11.75;;;4.30;99.90;;;;;;5033440;28;20045;-56
2023/03/01 00:52:08;;;;;;;12.65;11.27;;;4.30;99.90;;;;;;5033440;28;20100;-58
2023/03/01 00:54:35;;;;;;;16.83;12.13;;;4.30;99.90;;;;;;5035388;28;20075;-57
2023/03/01 00:57:02;;;;;;;16.48;11.85;;;4.30;99.90;;;;;;5037633;28;20037;-53
2023/03/01 00:59:29;;;;;;;15.73;12.32;;;4.40;99.90;;;;;;5019893;28;20380;-56
2023/03/01 01:01:55;;;;;;;18.35;12.77;;;4.40;99.90;;;;;;5037372;28;20504;-51
2023/03/01 01:04:22;;;;;;;14.05;12.00;;;4.40;99.90;;;;;;5035790;28;20072;-56
2023/03/01 01:06:49;;;;;;;15.10;11.93;;;4.30;99.90;;;;;;5037515;28;20120;-56
2023/03/01 01:09:19;;;;;;;16.48;12.35;;;4.30;99.90;;;;;;5037714;28;20045;-55
2023/03/01 01:11:45;;;;;;;14.95;12.90;;;4.30;99.90;;;;;;5037152;28;20107;-53
2023/03/01 01:14:12;;;;;;;16.20;12.65;;;4.30;99.90;;;;;;5036068;28;20041;-50
2023/03/01 01:16:39;;;;;;;15.43;12.52;;;4.30;99.90;;;;;;5037033;28;20037;-55
2023/03/01 01:19:06;;;;;;;17.55;12.75;;;4.30;99.90;;;;;;5037084;28;20041;-55
2023/03/01 01:21:32;;;;;;;17.15;12.23;;;4.40;99.90;;;;;;5036033;28;20042;-51
2023/03/01 01:23:59;;;;;;;19.02;12.77;;;4.40;99.90;;;;;;5036761;28;20041;-58
2023/03/01 01:26:26;;;;;;;15.80;12.75;;;4.40;99.90;;;;;;5037329;28;20048;-55
2023/03/01 01:28:53;;;;;;;14.80;12.13;;;4.40;99.90;;;;;;5037085;28;20369;-57
2023/03/01 01:31:19;;;;;;;14.65;11.80;;;4.50;99.90;;;;;;5036767;28;20103;-56
2023/03/01 01:33:46;;;;;;;18.02;12.32;;;4.40;99.90;;;;;;5036990;28;20040;-58
2023/03/01 01:36:13;;;;;;;14.52;12.02;;;4.50;99.90;;;;;;5036726;28;20037;-56
2023/03/01 01:38:42;;;;;;;14.20;12.20;;;4.50;99.90;;;;;;5036955;28;20037;-57
2023/03/01 01:41:11;;;;;;;15.23;11.77;;;4.50;99.90;;;;;;5036980;28;20400;-58
2023/03/01 01:43:37;;;;;;;15.27;12.43;;;4.50;99.90;;;;;;5036654;28;20045;-54
2023/03/01 01:46:04;;;;;;;16.80;11.75;;;4.60;99.90;;;;;;5035139;28;20045;-53
2023/03/01 01:48:40;;;;;;;17.05;11.75;;;4.60;99.90;;;;;;5036654;28;20385;-56
2023/03/01 01:51:06;;;;;;;14.23;11.55;;;4.60;99.90;;;;;;5036835;28;20047;-56
2023/03/01 01:53:33;;;;;;;18.90;11.90;;;4.60;99.90;;;;;;5035338;28;20492;-56
2023/03/01 01:56:00;;;;;;;14.02;11.73;;;4.60;99.90;;;;;;5036482;28;20045;-55
2023/03/01 01:58:27;;;;;;;13.45;11.57;;;4.50;99.90;;;;;;5035279;28;20045;-55
2023/03/01 02:00:53;;;;;;;13.55;11.85;;;4.50;99.90;;;;;;5035132;28;20041;-58
2023/03/01 02:03:20;;;;;;;14.98;12.00;;;4.50;99.90;;;;;;5035922;28;20091;-55
2023/03/01 02:05:47;;;;;;;15.95;12.10;;;4.50;99.90;;;;;;5035270;28;20155;-53
2023/03/01 02:08:21;;;;;;;14.95;11.75;;;4.50;99.90;;;;;;5036346;28;20037;-56
2023/03/01 02:10:47;;;;;;;14.88;11.68;;;4.60;99.90;;;;;;5035862;28;20037;-57
2023/03/01 02:13:14;;;;;;;13.32;11.40;;;4.60;99.90;;;;;;5035623;28;20053;-59
2023/03/01 02:15:43;;;;;;;16.15;11.90;;;4.50;99.90;;;;;;5034465;28;20068;-57
2023/03/01 02:18:10;;;;;;;14.32;11.60;;;4.60;99.90;;;;;;5035676;28;20447;-57
2023/03/01 02:20:37;;;;;;;17.00;12.15;;;4.60;99.90;;;;;;5034480;28;20060;-56
2023/03/01 02:23:05;;;;;;;13.77;11.10;;;4.60;99.90;;;;;;5034283;28;20069;-56
2023/03/01 02:25:32;;;;;;;14.63;11.60;;;4.70;99.90;;;;;;5035986;28;20037;-58
2023/03/01 02:27:59;;;;;;;15.27;11.73;;;4.70;99.90;;;;;;5035629;28;20431;-56
2023/03/01 02:30:25;;;;;;;16.10;11.73;;;4.70;99.90;;;;;;5034331;28;20049;-57
2023/03/01 02:32:52;;;;;;;13.63;10.90;;;4.60;99.90;;;;;;5034405;28;20103;-55
2023/03/01 02:35:19;;;;;;;12.35;10.27;;;4.60;99.90;;;;;;5034494;28;20038;-57
2023/03/01 02:37:45;;;;;;;14.00;10.20;;;4.70;99.90;;;;;;5034737;28;20045;-56
2023/03/01 02:40:12;;;;;;;14.02;9.82;;;4.60;99.90;;;;;;5035806;28;20037;-58
2023/03/01 02:42:39;;;;;;;12.60;9.85;;;4.60;99.90;;;;;;5034332;28;20045;-57
2023/03/01 02:45:06;;;;;;;11.40;8.85;;;4.60;99.90;;;;;;5035485;28;20048;-56
2023/03/01 02:47:32;;;;;;;12.05;9.02;;;4.70;99.90;;;;;;5035934;28;20041;-55
2023/03/01 02:49:59;;;;;;;11.70;7.93;;;4.70;99.90;;;;;;5035097;28;20504;-57
2023/03/01 02:52:26;;;;;;;12.63;6.80;;;4.70;99.90;;;;;;5033941;28;20097;-52
2023/03/01 02:54:53;;;;;;;8.88;6.75;;;4.70;99.90;;;;;;5035589;28;20037;-58
2023/03/01 02:57:21;;;;;;;10.07;5.90;;;4.70;99.90;;;;;;5034152;28;20076;-57
2023/03/01 02:59:48;;;;;;;9.50;5.80;;;4.70;99.90;;;;;;5034210;28;20373;-54
2023/03/01 03:02:16;;;;;;;9.18;6.05;;;4.80;99.90;;;;;;5033741;28;20087;-58
2023/03/01 03:04:43;;;;;;;9.68;5.30;;;4.70;99.90;;;;;;5033889;28;20096;-56
2023/03/01 03:07:09;;;;;;;7.60;4.65;;;4.80;99.90;;;;;;5033799;28;20041;-55
2023/03/01 03:09:36;;;;;;;6.18;4.65;;;4.80;99.90;;;;;;5035196;28;20054;-54
2023/03/01 03:12:03;;;;;;;9.05;4.53;;;4.80;99.90;;;;;;5035061;28;20529;-54
2023/03/01 03:14:34;;;;;;;6.90;3.80;;;4.80;99.90;;;;;;5033664;28;20057;-55
2023/03/01 03:17:06;;;;;;;7.32;3.90;;;4.80;99.90;;;;;;5033143;28;20064;-55
2023/03/01 03:19:32;;;;;;;6.40;3.65;;;4.80;99.90;;;;;;5035083;28;20392;-58
2023/03/01 03:21:59;;;;;;;5.95;3.60;;;4.80;99.90;;;;;;5033475;28;20053;-54
2023/03/01 03:24:28;;;;;;;9.65;4.00;;;4.80;99.90;;;;;;5034833;28;20045;-55
2023/03/01 03:26:55;;;;;;;7.57;4.18;;;4.80;99.90;;;;;;5034667;28;20049;-54
2023/03/01 03:29:21;;;;;;;5.97;4.15;;;4.80;99.90;;;;;;5034938;28;20045;-57
2023/03/01 03:31:48;;;;;;;8.18;3.90;;;4.80;99.90;;;;;;5034924;28;20107;-58
2023/03/01 03:34:17;;;;;;;8.50;4.28;;;4.80;99.90;;;;;;5034549;28;20115;-56
2023/03/01 03:36:44;;;;;;;11.05;4.05;;;4.80;99.90;;;;;;5034905;28;20080;-57
2023/03/01 03:39:11;;;;;;;10.18;4.65;;;4.80;99.90;;;;;;5034357;28;20095;-57
2023/03/01 03:41:38;;;;;;;9.43;4.43;;;4.70;99.90;;;;;;5034508;28;20065;-57
2023/03/01 03:44:05;;;;;;;5.88;4.15;;;4.70;99.90;;;;;;5034274;28;20044;-55
2023/03/01 03:46:32;;;;;;;11.02;4.28;;;4.80;99.90;;;;;;5034578;28;20099;-58
2023/03/01 03:48:59;;;;;;;7.60;3.90;;;4.80;99.90;;;;;;5034738;28;20076;-56
2023/03/01 03:51:26;;;;;;;6.22;3.65;;;4.80;99.90;;;;;;5034632;28;20618;-54
2023/03/01 03:53:53;;;;;;;7.35;3.28;;;4.80;99.90;;;;;;5034007;28;20534;-57
2023/03/01 03:56:19;;;;;;;5.53;3.55;;;4.80;99.90;;;;;;5033998;28;20096;-56
2023/03/01 03:58:46;;;;;;;8.23;3.63;;;4.80;99.90;;;;;;5034096;28;20038;-54
2023/03/01 04:01:13;;;;;;;4.88;3.10;;;4.80;99.90;;;;;;5034255;28;20124;-55
2023/03/01 04:03:41;;;;;;;8.20;3.00;;;4.80;99.90;;;;;;5034124;28;20054;-57
2023/03/01 04:06:08;;;;;;;4.82;3.42;;;4.80;99.90;;;;;;5033733;28;20488;-55
2023/03/01 04:08:35;;;;;;;7.03;3.05;;;4.80;99.90;;;;;;5033799;28;20064;-50
2023/03/01 04:11:25;;;;;;;5.93;2.55;;;4.70;99.90;;;;;;5034222;28;20049;-57
2023/03/01 04:13:48;;;;;;;7.30;2.92;;;4.80;99.90;;;;;;5033514;28;20054;-57
2023/03/01 04:16:15;;;;;;;12.65;3.60;;;4.80;99.90;;;;;;5033726;28;20116;-57
2023/03/01 04:18:42;;;;;;;3.70;2.63;;;4.70;99.90;;;;;;5033638;28;20099;-57
2023/03/01 04:21:09;;;;;;;8.23;3.40;;;4.70;99.90;;;;;;5033991;28;20116;-58
2023/03/01 04:23:35;;;;;;;7.20;3.08;;;4.70;99.90;;;;;;5033732;28;20083;-58
2023/03/01 04:26:02;;;;;;;6.15;3.10;;;4.80;99.90;;;;;;5033501;28;20041;-58
2023/03/01 04:28:29;;;;;;;7.05;2.83;;;4.80;99.90;;;;;;5032850;28;20107;-55
2023/03/01 04:30:56;;;;;;;7.07;3.50;;;4.80;99.90;;;;;;5033695;28;20053;-58
2023/03/01 04:33:22;;;;;;;7.18;3.17;;;4.80;99.90;;;;;;5033398;28;20041;-55
2023/03/01 04:35:49;;;;;;;7.07;2.90;;;4.80;99.90;;;;;;5033365;28;20041;-55
2023/03/01 04:38:16;;;;;;;6.07;3.78;;;4.80;99.90;;;;;;5033253;28;20037;-58
2023/03/01 04:40:43;;;;;;;8.30;2.72;;;4.80;99.90;;;;;;5033569;28;20048;-58
2023/03/01 04:43:09;;;;;;;5.78;2.42;;;4.80;99.90;;;;;;5033447;28;20038;-56
2023/03/01 04:45:36;;;;;;;3.05;2.40;;;4.80;99.90;;;;;;5032248;28;20053;-57
2023/03/01 04:48:03;;;;;;;4.28;2.90;;;4.80;99.90;;;;;;5033911;28;20099;-57
2023/03/01 04:50:30;;;;;;;5.78;2.67;;;4.70;99.90;;;;;;5033857;28;20048;-55
2023/03/01 04:52:59;;;;;;;5.35;2.90;;;4.80;99.90;;;;;;5033717;28;20045;-57
2023/03/01 04:55:26;;;;;;;6.07;3.58;;;4.80;99.90;;;;;;5033356;28;20048;-55
2023/03/01 04:57:53;;;;;;;5.53;2.83;;;4.80;99.90;;;;;;5033377;28;20042;-57
2023/03/01 05:00:20;;;;;;;5.80;2.60;;;4.80;99.90;;;;;;5033477;28;20083;-56
2023/03/01 05:02:48;;;;;;;3.75;2.50;;;4.80;99.90;;;;;;5033044;28;20111;-57
2023/03/01 05:05:15;;;;;;;3.45;2.50;;;4.70;99.90;;;;;;5033419;28;20104;-58
2023/03/01 05:07:41;;;;;;;4.30;2.50;;;4.70;99.90;;;;;;5033174;28;20380;-55
2023/03/01 05:10:08;;;;;;;4.75;2.50;;;4.80;99.90;;;;;;5033293;28;20053;-56
2023/03/01 05:12:37;;;;;;;5.65;2.50;;;4.80;99.90;;;;;;5033257;28;20062;-58
2023/03/01 05:15:06;;;;;;;4.20;2.47;;;4.70;99.90;;;;;;5033090;28;20476;-58
2023/03/01 05:17:33;;;;;;;3.70;2.42;;;4.70;99.90;;;;;;5033101;28;20045;-58
2023/03/01 05:20:00;;;;;;;5.47;2.50;;;4.70;99.90;;;;;;5033536;28;20038;-58
2023/03/01 05:22:27;;;;;;;6.55;2.85;;;4.70;99.90;;;;;;5031822;28;20034;-57
2023/03/01 05:24:54;;;;;;;5.68;2.60;;;4.70;99.90;;;;;;5033117;28;20054;-54
2023/03/01 05:27:22;;;;;;;5.60;2.50;;;4.70;99.90;;;;;;5033618;28;20046;-54
2023/03/01 05:29:48;;;;;;;4.35;2.47;;;4.60;99.90;;;;;;5032080;28;20037;-55
2023/03/01 05:32:16;;;;;;;4.95;2.70;;;4.60;99.90;;;;;;5033242;28;20100;-57
2023/03/01 05:34:43;;;;;;;5.75;2.70;;;4.60;99.90;;;;;;5032784;28;20034;-52
2023/03/01 05:37:10;;;;;;;3.20;2.47;;;4.70;99.90;;;;;;5032952;28;20075;-54
2023/03/01 05:39:37;;;;;;;3.97;2.42;;;4.70;99.90;;;;;;5034827;28;20056;-56
2023/03/01 05:42:04;;;;;;;5.25;2.20;;;4.70;99.90;;;;;;5036876;28;20057;-58
2023/03/01 05:44:30;;;;;;;5.60;2.60;;;4.70;99.90;;;;;;5036230;28;20091;-52
2023/03/01 05:46:57;;;;;;;3.35;2.20;;;4.70;99.90;;;;;;5036203;28;20047;-55
2023/03/01 05:49:24;;;;;;;5.75;2.40;;;4.70;99.90;;;;;;5036196;28;20045;-56
2023/03/01 05:51:51;;;;;;;4.53;1.98;;;4.70;99.90;;;;;;5035361;28;20404;-58
2023/03/01 05:54:18;;;;;;;10.00;3.97;;;4.70;99.90;;;;;;5036004;28;20128;-53
2023/03/01 05:56:45;;;;;;;3.55;2.30;;;4.70;99.90;;;;;;5036136;28;20095;-54
2023/03/01 05:59:11;;;;;;;3.97;2.40;;;4.70;99.90;;;;;;5036094;28;20037;-55
2023/03/01 06:01:38;;;;;;;5.78;2.47;;;4.70;99.90;;;;;;5036094;28;20148;-57
2023/03/01 06:04:05;;;;;;;4.95;2.25;;;4.70;99.90;;;;;;5036188;28;20041;-54
2023/03/01 06:06:32;;;;;;;2.85;2.10;;;4.70;99.90;;;;;;5036297;28;20054;-55
2023/03/01 06:08:59;;;;;;;3.75;2.45;;;4.70;99.90;;;;;;5036012;28;20144;-57
2023/03/01 06:11:26;;;;;;;3.30;2.30;;;4.60;99.90;;;;;;5036411;28;20041;-56
2023/03/01 06:13:53;;;;;;;5.55;2.40;;;4.70;99.90;;;;;;5034182;28;20057;-54
2023/03/01 06:16:19;;;;;;;4.00;2.10;;;4.60;99.90;;;;;;5035979;28;20033;-53
2023/03/01 06:18:46;;;;;;;4.10;2.60;;;4.60;99.90;;;;;;5035908;28;20042;-58
2023/03/01 06:21:13;;;;;;;3.92;2.25;;;4.60;99.90;;;;;;5035753;28;20052;-49
2023/03/01 06:23:40;;;;;;;5.43;2.20;;;4.50;99.90;;;;;;5034287;28;20049;-56
2023/03/01 06:26:07;;;;;;;3.53;2.30;;;4.50;99.90;;;;;;5035570;28;20057;-53
2023/03/01 06:28:33;;;;;;;3.85;2.60;;;4.50;99.90;;;;;;5035809;28;20099;-57
2023/03/01 06:31:00;;;;;;;4.53;2.25;;;4.50;99.90;;;;;;5035947;28;20055;-54
2023/03/01 06:33:27;;;;;;;4.28;2.38;;;4.50;99.90;;;;;;5036073;28;20491;-58
2023/03/01 06:35:54;;;;;;;2.75;2.10;;;4.50;99.90;;;;;;5035589;28;20072;-57
2023/03/01 06:38:21;;;;;;;5.03;2.42;;;4.50;99.90;;;;;;5035800;28;20067;-56
2023/03/01 06:40:47;;;;;;;3.40;2.50;;;4.50;99.90;;;;;;5035335;28;20091;-57
2023/03/01 06:43:14;;;;;;;4.18;2.42;;;4.50;99.90;;;;;;5032230;28;20044;-57
2023/03/01 06:45:42;;;;;;;3.78;2.55;;;4.50;99.90;;;;;;5017778;28;20057;-53
2023/03/01 06:48:09;;;;;;;5.82;2.83;;;4.60;99.90;;;;;;5014366;28;20547;-55
2023/03/01 06:50:36;;;;;;;4.10;2.90;;;4.60;99.90;;;;;;5014790;28;20492;-52
2023/03/01 06:53:03;;;;;;;5.22;2.70;;;4.60;99.90;;;;;;4998452;28;20073;-55
2023/03/01 06:55:30;;;;;;;6.30;3.22;;;4.60;99.90;;;;;;5015895;28;20096;-57
2023/03/01 06:57:56;;;;;;;5.60;2.97;;;4.60;99.90;;;;;;5015670;28;20048;-57
2023/03/01 07:00:23;;;;;;;6.22;3.60;;;4.60;99.90;;;;;;5015748;28;20077;-52
2023/03/01 07:02:50;;;;;;;4.15;3.00;;;4.60;99.90;;;;;;5015492;28;20045;-54
2023/03/01 07:05:17;;;;;;;5.78;3.63;;;4.60;99.90;;;;;;5015829;28;20049;-57
2023/03/01 07:07:43;;;;;;;5.25;3.60;;;4.60;99.90;;;;;;5015840;28;20381;-51
2023/03/01 07:10:10;;;;;;;6.57;3.80;;;4.60;99.90;;;;;;5015619;28;20058;-56
2023/03/01 07:12:37;;;;;;;4.80;3.60;;;4.70;99.90;;;;;;5015264;28;20093;-58
2023/03/01 07:15:04;;;;;;;6.70;3.67;;;4.60;99.90;;;;;;5015520;28;20046;-57
2023/03/01 07:17:30;;;;;;;11.07;4.90;;;4.70;99.90;;;;;;5015558;28;20045;-56
2023/03/01 07:19:57;;;;;;;9.13;3.60;;;4.60;99.90;;;;;;5015151;28;20034;-55
2023/03/01 07:22:24;;;;;;;5.85;3.40;;;4.70;99.90;;;;;;5015116;28;20045;-54
2023/03/01 07:24:51;;;;;;;5.15;3.42;;;4.60;99.90;;;;;;5015238;28;20049;-57
2023/03/01 07:27:17;;;;;;;6.72;3.60;;;4.60;99.90;;;;;;5015211;28;20488;-54
2023/03/01 07:29:44;;;;;;;8.57;3.88;;;4.70;99.90;;;;;;5013694;28;20591;-53
2023/03/01 07:32:11;;;;;;;7.90;3.20;;;4.70;99.90;;;;;;5013501;28;20065;-53
2023/03/01 07:34:38;;;;;;;4.38;3.00;;;4.60;99.90;;;;;;5013590;28;20121;-50
2023/03/01 07:37:05;;;;;;;5.80;2.60;;;4.60;99.90;;;;;;5013727;28;20049;-56
2023/03/01 07:39:31;;;;;;;5.88;2.58;;;4.70;99.90;;;;;;5013599;28;20042;-55
2023/03/01 07:41:58;;;;;;;4.40;2.35;;;4.60;99.90;;;;;;5013582;28;20046;-56
2023/03/01 07:44:25;;;;;;;5.07;2.58;;;4.70;99.90;;;;;;5013671;28;20445;-55
2023/03/01 07:46:56;;;;;;;3.28;2.10;;;4.70;99.90;;;;;;5014918;28;20505;-56
2023/03/01 07:49:23;;;;;;;5.35;2.30;;;4.70;99.90;;;;;;5014607;28;20064;-56
2023/03/01 07:51:49;;;;;;;3.70;2.20;;;4.70;99.90;;;;;;5014419;28;20073;-57
2023/03/01 07:54:16;;;;;;;4.43;2.20;;;4.80;99.90;;;;;;5014987;28;20406;-57
2023/03/01 07:56:43;;;;;;;4.07;2.10;;;4.80;99.90;;;;;;5014830;28;20034;-58
2023/03/01 07:59:09;;;;;;;4.75;2.53;;;4.80;99.90;;;;;;5013008;28;20111;-56
2023/03/01 08:01:36;;;;;;;5.65;2.13;;;4.80;99.90;;;;;;5014293;28;20121;-58
2023/03/01 08:04:06;;;;;;;4.47;2.42;;;4.80;99.90;;;;;;5014101;28;20084;-57
2023/03/01 08:06:33;;;;;;;5.10;2.10;;;4.80;99.90;;;;;;5014545;28;20046;-56
2023/03/01 08:09:00;;;;;;;4.32;1.98;;;4.80;99.90;;;;;;5014066;28;20049;-55
2023/03/01 08:11:28;;;;;;;5.40;2.60;;;4.90;99.90;;;;;;5014344;28;20045;-52
2023/03/01 08:13:56;;;;;;;6.15;2.60;;;4.90;99.90;;;;;;5013877;28;20405;-55
2023/03/01 08:16:23;;;;;;;4.22;2.20;;;4.90;99.90;;;;;;5014359;28;20092;-58
2023/03/01 08:18:49;;;;;;;5.05;2.67;;;4.90;99.90;;;;;;5014111;28;20066;-55
2023/03/01 08:21:16;;;;;;;6.22;2.38;;;5.00;99.90;;;;;;5014456;28;20111;-57
2023/03/01 08:23:43;;;;;;;5.50;2.55;;;5.00;99.90;;;;;;5014230;28;20042;-54
2023/03/01 08:26:10;;;;;;;6.38;2.63;;;5.00;99.90;;;;;;5013022;28;20079;-57
2023/03/01 08:28:37;;;;;;;4.10;2.10;;;5.10;99.90;;;;;;5014059;28;20044;-56
2023/03/01 08:31:04;;;;;;;6.18;2.67;;;5.20;99.90;;;;;;5014173;28;20042;-56
2023/03/01 08:33:30;;;;;;;4.15;2.20;;;5.20;99.90;;;;;;5013636;28;20108;-56
2023/03/01 08:35:57;;;;;;;5.07;2.28;;;5.30;99.90;;;;;;5013966;28;20116;-54
2023/03/01 08:38:24;;;;;;;4.43;2.22;;;5.30;99.90;;;;;;5013962;28;20048;-52
2023/03/01 08:40:51;;;;;;;6.60;2.30;;;5.30;99.90;;;;;;5014192;28;20044;-56
2023/03/01 08:43:18;;;;;;;8.88;2.58;;;5.30;99.90;;;;;;5013708;28;20568;-52
2023/03/01 08:45:44;;;;;;;6.30;2.53;;;5.30;99.90;;;;;;5013531;28;20116;-54
2023/03/01 08:48:11;;;;;;;5.15;1.77;;;5.30;99.90;;;;;;5012923;28;20096;-57
2023/03/01 08:50:38;;;;;;;3.95;1.83;;;5.30;99.90;;;;;;5013702;28;20041;-57
2023/03/01 08:53:07;;;;;;;5.13;2.22;;;5.30;99.90;;;;;;5013598;28;20060;-55
2023/03/01 08:55:34;;;;;;;5.38;2.40;;;5.40;99.90;;;;;;5013190;28;20394;-57
2023/03/01 08:58:01;;;;;;;8.00;2.13;;;5.40;99.90;;;;;;5013527;28;20038;-54
2023/03/01 09:00:28;;;;;;;6.07;1.95;;;5.50;99.90;;;;;;5012409;28;20042;-53
2023/03/01 09:02:54;;;;;;;5.45;2.45;;;5.50;99.90;;;;;;5013562;28;20046;-54
2023/03/01 09:05:21;;;;;;;6.22;2.70;;;5.50;99.90;;;;;;5013890;28;20050;-57
2023/03/01 09:07:48;;;;;;;8.35;2.80;;;5.50;99.90;;;;;;5012713;28;20165;-53
2023/03/01 09:10:14;;;;;;;4.32;1.90;;;5.60;99.90;;;;;;5013733;28;20469;-56
2023/03/01 09:12:41;;;;;;;4.95;2.20;;;5.50;99.90;;;;;;5013233;28;20469;-55
2023/03/01 09:15:08;;;;;;;5.85;2.05;;;5.60;99.90;;;;;;5016408;28;20038;-58
2023/03/01 09:17:35;;;;;;;7.63;1.80;;;5.60;99.90;;;;;;5017619;28;20050;-54
2023/03/01 09:20:02;;;;;;;7.70;1.98;;;5.70;99.90;;;;;;5017227;28;20096;-55
2023/03/01 09:22:29;;;;;;;3.88;1.55;;;5.70;99.90;;;;;;5017533;28;20527;-56
2023/03/01 09:24:58;;;;;;;3.63;1.67;;;5.70;99.90;;;;;;5017262;28;20084;-54
2023/03/01 09:27:25;;;;;;;6.82;2.55;;;5.80;99.90;;;;;;5017341;28;20050;-54
2023/03/01 09:29:52;;;;;;;4.45;2.60;;;5.80;99.90;;;;;;5017163;28;20049;-54
2023/03/01 09:32:19;;;;;;;4.20;2.33;;;5.90;99.90;;;;;;5017314;28;20052;-55
2023/03/01 09:35:03;;;;;;;5.05;2.08;;;5.90;99.90;;;;;;5017439;28;20078;-51
2023/03/01 09:37:30;;;;;;;6.88;2.25;;;6.00;99.90;;;;;;5017331;28;20470;-57
2023/03/01 09:39:56;;;;;;;6.03;2.13;;;6.10;99.90;;;;;;5016921;28;20446;-58
2023/03/01 09:42:23;;;;;;;3.85;2.05;;;6.10;99.90;;;;;;5016833;28;20034;-57
2023/03/01 09:44:50;;;;;;;5.30;1.98;;;6.30;99.90;;;;;;5016871;28;20532;-57
2023/03/01 09:47:17;;;;;;;4.15;2.33;;;6.20;99.90;;;;;;5017050;28;20042;-57
2023/03/01 09:49:48;;;;;;;9.40;2.20;;;6.20;99.90;;;;;;5017070;28;20042;-56
2023/03/01 09:52:15;;;;;;;4.57;2.08;;;6.20;99.90;;;;;;5016912;28;20191;-59
2023/03/01 09:54:42;;;;;;;5.15;2.10;;;6.20;99.90;;;;;;5016864;28;20041;-58
2023/03/01 09:57:08;;;;;;;6.75;2.70;;;6.30;99.90;;;;;;5017134;28;20533;-58
2023/03/01 09:59:35;;;;;;;7.13;2.67;;;6.30;99.90;;;;;;5016524;28;20042;-58
2023/03/01 10:02:02;;;;;;;6.75;2.83;;;6.30;99.90;;;;;;5016781;28;20037;-59
2023/03/01 10:04:28;;;;;;;4.72;2.63;;;6.40;99.90;;;;;;5016605;28;20080;-54
2023/03/01 10:06:55;;;;;;;9.80;2.75;;;6.40;99.90;;;;;;5016681;28;20088;-58
2023/03/01 10:09:22;;;;;;;7.65;2.45;;;6.40;99.90;;;;;;5015381;28;20045;-61
2023/03/01 10:11:49;;;;;;;6.93;2.63;;;6.40;99.90;;;;;;5016748;28;20045;-58
2023/03/01 10:14:15;;;;;;;5.60;2.55;;;6.40;99.90;;;;;;5016460;28;20054;-60
2023/03/01 10:16:42;;;;;;;4.32;2.13;;;6.40;99.90;;;;;;5016385;28;20034;-58
2023/03/01 10:19:09;;;;;;;7.75;2.40;;;6.40;99.90;;;;;;5016613;28;20113;-59
2023/03/01 10:21:36;;;;;;;4.47;1.92;;;6.40;99.90;;;;;;5016929;28;20061;-61
2023/03/01 10:24:04;;;;;;;5.97;2.35;;;6.50;99.90;;;;;;5016522;28;20132;-59
2023/03/01 10:26:31;;;;;;;3.38;1.92;;;6.50;99.90;;;;;;5015120;28;20417;-59
2023/03/01 10:28:58;;;;;;;3.05;1.92;;;6.50;99.90;;;;;;5016501;28;20560;-59
2023/03/01 10:31:29;;;;;;;3.45;1.73;;;6.50;99.90;;;;;;5016421;28;20096;-59
2023/03/01 10:33:58;;;;;;;6.15;1.42;;;6.50;99.90;;;;;;5016194;28;20046;-57
2023/03/01 10:36:25;;;;;;;3.78;1.20;;;6.50;99.90;;;;;;5016187;28;20088;-58
2023/03/01 10:38:53;;;;;;;3.15;1.30;;;6.70;99.90;;;;;;5016123;28;20511;-56
2023/03/01 10:41:21;;;;;;;6.10;1.83;;;6.80;99.90;;;;;;5016034;28;20037;-58
2023/03/01 10:43:49;;;;;;;3.90;1.40;;;6.90;99.90;;;;;;5015693;28;20046;-59
2023/03/01 10:46:16;;;;;;;4.25;1.42;;;7.00;99.90;;;;;;5015711;28;20050;-60
2023/03/01 10:48:42;;;;;;;4.32;1.27;;;7.00;99.90;;;;;;5015877;28;20599;-60
2023/03/01 10:51:09;;;;;;;2.45;1.08;;;7.10;99.90;;;;;;5015969;28;20100;-59
2023/03/01 10:53:36;;;;;;;1.98;0.75;;;7.10;99.90;;;;;;5015647;28;20059;-57
2023/03/01 10:56:03;;;;;;;2.47;0.80;;;7.00;99.90;;;;;;5016024;28;20385;-60
2023/03/01 10:58:29;;;;;;;2.00;0.80;;;7.00;99.90;;;;;;5015706;28;20046;-60
2023/03/01 11:00:56;;;;;;;2.63;1.00;;;6.90;99.90;;;;;;5015906;28;20440;-58
2023/03/01 11:03:23;;;;;;;4.57;1.17;;;6.90;99.90;;;;;;5015529;28;20038;-58
2023/03/01 11:05:50;;;;;;;2.05;0.90;;;6.90;99.90;;;;;;5015872;28;20563;-56
2023/03/01 11:08:17;;;;;;;2.90;0.90;;;6.90;99.90;;;;;;5015673;28;20077;-60
2023/03/01 11:10:44;;;;;;;1.83;0.90;;;7.00;99.90;;;;;;5015870;28;20054;-59
2023/03/01 11:13:10;;;;;;;2.90;1.00;;;7.10;99.90;;;;;;5015163;28;20061;-58
2023/03/01 11:15:37;;;;;;;2.85;0.98;;;7.20;99.90;;;;;;5015348;28;20096;-59
2023/03/01 11:18:04;;;;;;;2.08;0.95;;;7.20;99.90;;;;;;5015622;28;20038;-56
2023/03/01 11:20:39;;;;;;;3.97;1.05;;;7.20;99.90;;;;;;5015313;28;20042;-58
2023/03/01 11:23:06;;;;;;;2.92;0.90;;;7.20;99.90;;;;;;5015076;28;20034;-59
2023/03/01 11:25:33;;;;;;;3.25;0.98;;;7.20;99.90;;;;;;5015070;28;20125;-57
2023/03/01 11:28:00;;;;;;;1.88;0.70;;;7.10;99.90;;;;;;5015526;28;20037;-56
2023/03/01 11:30:27;;;;;;;6.38;0.90;;;7.10;99.90;;;;;;5015404;28;20050;-58
2023/03/01 11:32:53;;;;;;;1.83;0.80;;;7.10;99.90;;;;;;5014937;28;20054;-58
2023/03/01 11:35:20;;;;;;;2.03;0.75;;;7.10;99.90;;;;;;5015250;28;20050;-57
2023/03/01 11:37:47;;;;;;;6.07;1.10;;;7.20;99.90;;;;;;5014570;28;20045;-58
2023/03/01 11:40:14;;;;;;;2.63;0.80;;;7.10;99.90;;;;;;5015467;28;20041;-58
2023/03/01 11:42:41;;;;;;;4.00;1.02;;;7.10;99.90;;;;;;5014819;28;20429;-55
2023/03/01 11:45:08;;;;;;;2.38;0.90;;;7.10;99.90;;;;;;5013840;28;20426;-57
2023/03/01 11:47:34;;;;;;;3.80;0.90;;;7.10;99.90;;;;;;5014878;28;20488;-57
2023/03/01 11:50:01;;;;;;;3.95;1.05;;;7.20;99.90;;;;;;5014796;28;20048;-56
2023/03/01 11:52:28;;;;;;;3.35;1.00;;;7.10;99.90;;;;;;5014936;28;20543;-55
2023/03/01 11:54:55;;;;;;;3.63;0.90;;;7.10;99.90;;;;;;5015027;28;20111;-58
2023/03/01 11:57:22;;;;;;;3.42;0.90;;;7.10;99.90;;;;;;5014665;28;20432;-56
2023/03/01 11:59:59;;;;;;;2.13;0.88;;;7.10;99.90;;;;;;5014582;28;20041;-58
2023/03/01 12:02:26;;;;;;;3.28;1.00;;;7.10;99.90;;;;;;5014433;28;20092;-56
2023/03/01 12:04:53;;;;;;;4.53;0.90;;;7.10;99.90;;;;;;5014318;28;20497;-58
2023/03/01 12:07:19;;;;;;;2.65;0.80;;;7.00;99.90;;;;;;5013380;28;20046;-57
2023/03/01 12:09:46;;;;;;;2.67;0.75;;;7.10;99.90;;;;;;5014495;28;20048;-58
2023/03/01 12:12:13;;;;;;;2.63;1.00;;;7.10;99.90;;;;;;5013977;28;20048;-57
2023/03/01 12:14:40;;;;;;;2.13;1.10;;;7.10;99.90;;;;;;5014250;28;20448;-57
2023/03/01 12:17:08;;;;;;;2.53;0.82;;;7.20;99.90;;;;;;5014289;28;20042;-55
2023/03/01 12:19:35;;;;;;;4.60;1.00;;;7.20;99.90;;;;;;5014346;28;20056;-59
2023/03/01 12:22:02;;;;;;;6.63;0.93;;;7.20;99.90;;;;;;5014163;28;20433;-55
2023/03/01 12:24:29;;;;;;;2.20;1.08;;;7.20;99.90;;;;;;5013164;28;20091;-56
2023/03/01 12:26:56;;;;;;;2.42;1.20;;;7.10;99.90;;;;;;5014272;28;20493;-57
2023/03/01 12:29:23;;;;;;;2.65;1.05;;;7.10;99.90;;;;;;5014321;28;20385;-56
2023/03/01 12:31:49;;;;;;;3.60;1.20;;;7.10;99.90;;;;;;5014391;28;20045;-60
2023/03/01 12:34:17;;;;;;;3.65;1.20;;;7.10;99.90;;;;;;5014236;28;20049;-59
2023/03/01 12:36:44;;;;;;;2.58;1.10;;;7.10;99.90;;;;;;5013895;28;20444;-56
2023/03/01 12:39:10;;;;;;;3.47;1.27;;;7.10;99.90;;;;;;5014003;28;20465;-60
2023/03/01 12:41:37;;;;;;;3.10;1.20;;;7.00;99.90;;;;;;5013897;28;20113;-56
2023/03/01 12:44:04;;;;;;;3.42;1.00;;;7.10;99.90;;;;;;5013814;28;20038;-56
2023/03/01 12:46:31;;;;;;;3.03;1.13;;;7.10;99.90;;;;;;5012791;28;20464;-60
2023/03/01 12:48:58;;;;;;;4.88;1.30;;;7.10;99.90;;;;;;5013419;28;20120;-59
2023/03/01 12:51:25;;;;;;;4.13;1.40;;;7.10;99.90;;;;;;5013735;28;20057;-56